Aviation Digital Data Service (ADDS)

Output produced by METARs form (1433 UTC 20 September 2017)
found at http://www.aviationweather.gov/adds/metars/
 
KGED 201354Z AUTO 34008KT 10SM CLR 25/18 A2991 RMK AO2 SLP127 T02500183